Time;durP1;ratioP1;P1;durP2;ratioP2;P2;SDS_P1;SDS_P2;PMS_P1;PMS_P2;Temp;Humidity;BMP_temperature;BMP_pressure;BME280_temperature;BME280_humidity;BME280_pressure;Samples;Min_cycle;Max_cycle;Signal;HPM_P1;HPM_P2
2022/03/13 00:00:21;;;;;;;17.90;12.03;;;5.20;28.10;;;;;;5116144;28;20433;-70
2022/03/13 00:02:48;;;;;;;18.50;12.10;;;5.10;28.00;;;;;;5117441;28;20754;-70
2022/03/13 00:05:17;;;;;;;20.27;13.00;;;5.10;28.10;;;;;;5116840;28;20525;-70
2022/03/13 00:07:45;;;;;;;20.53;12.40;;;5.10;28.10;;;;;;5117150;28;20484;-70
2022/03/13 00:10:12;;;;;;;19.80;12.83;;;5.10;28.10;;;;;;5116960;28;20549;-70
2022/03/13 00:12:39;;;;;;;18.00;12.37;;;5.10;28.30;;;;;;5117027;28;20525;-70
2022/03/13 00:15:09;;;;;;;18.93;12.87;;;5.10;28.20;;;;;;5116610;28;21007;-70
2022/03/13 00:17:36;;;;;;;17.47;12.90;;;5.00;28.30;;;;;;5116772;28;20854;-70
2022/03/13 00:20:08;;;;;;;18.90;12.70;;;5.00;28.40;;;;;;5116895;28;20456;-70
2022/03/13 00:22:37;;;;;;;17.20;12.80;;;4.90;28.40;;;;;;5117145;28;20750;-70
2022/03/13 00:25:09;;;;;;;16.53;11.80;;;4.90;28.60;;;;;;5116797;28;20529;-70
2022/03/13 00:27:36;;;;;;;17.80;12.37;;;4.90;28.60;;;;;;5116467;28;20437;-70
2022/03/13 00:30:06;;;;;;;18.97;12.07;;;4.80;29.00;;;;;;5116755;28;20480;-70
2022/03/13 00:32:33;;;;;;;17.70;12.73;;;4.80;28.50;;;;;;5116549;28;20805;-70
2022/03/13 00:35:00;;;;;;;16.70;11.70;;;4.80;28.30;;;;;;5116358;28;20942;-69
2022/03/13 00:37:26;;;;;;;17.43;11.67;;;4.70;28.40;;;;;;5116807;28;20452;-69
2022/03/13 00:39:56;;;;;;;16.87;12.43;;;4.70;28.40;;;;;;5117169;28;20456;-69
2022/03/13 00:42:24;;;;;;;17.57;10.63;;;4.70;28.40;;;;;;5116096;28;20492;-69
2022/03/13 00:44:51;;;;;;;21.17;11.37;;;4.60;28.40;;;;;;5116445;28;20756;-69
2022/03/13 00:47:19;;;;;;;18.80;11.83;;;4.60;28.50;;;;;;5117135;28;20826;-70
2022/03/13 00:49:46;;;;;;;18.70;12.67;;;4.60;28.50;;;;;;5116234;28;20508;-69
2022/03/13 00:52:13;;;;;;;16.53;11.37;;;4.50;28.50;;;;;;5115726;28;20504;-69
2022/03/13 00:54:39;;;;;;;17.80;11.60;;;4.50;28.50;;;;;;5116208;28;20448;-69
2022/03/13 00:57:08;;;;;;;20.33;12.67;;;4.50;28.50;;;;;;5116151;28;20456;-69
2022/03/13 00:59:35;;;;;;;16.00;12.23;;;4.40;28.60;;;;;;5115624;28;20914;-69
2022/03/13 01:02:03;;;;;;;14.23;11.13;;;4.40;28.70;;;;;;5116050;28;20849;-69
2022/03/13 01:04:29;;;;;;;17.00;11.83;;;4.40;28.60;;;;;;5115531;28;20911;-69
2022/03/13 01:06:56;;;;;;;17.73;12.37;;;4.30;28.50;;;;;;5115885;28;20800;-69
2022/03/13 01:09:23;;;;;;;18.80;11.67;;;4.30;28.60;;;;;;5115991;28;20476;-69
2022/03/13 01:11:49;;;;;;;16.03;11.70;;;4.30;28.50;;;;;;5115691;28;20471;-69
2022/03/13 01:14:20;;;;;;;17.00;11.93;;;4.30;28.60;;;;;;5115715;28;20463;-69
2022/03/13 01:16:47;;;;;;;17.00;12.37;;;4.30;28.50;;;;;;5116013;28;20849;-69
2022/03/13 01:19:14;;;;;;;14.17;11.27;;;4.30;28.60;;;;;;5115705;28;20457;-69
2022/03/13 01:21:43;;;;;;;16.00;10.93;;;4.20;28.60;;;;;;5115962;28;20452;-69
2022/03/13 01:24:30;;;;;;;16.30;10.40;;;4.20;28.50;;;;;;5115616;28;20453;-69
2022/03/13 01:27:02;;;;;;;15.47;11.00;;;4.20;28.70;;;;;;5116152;28;20835;-69
2022/03/13 01:29:32;;;;;;;15.73;10.93;;;4.10;28.70;;;;;;5115320;28;21035;-69
2022/03/13 01:32:00;;;;;;;16.60;10.60;;;4.10;28.60;;;;;;5115317;28;20457;-69
2022/03/13 01:34:41;;;;;;;16.13;11.03;;;4.10;28.60;;;;;;5115111;28;20906;-69
2022/03/13 01:37:13;;;;;;;14.20;10.47;;;4.10;28.70;;;;;;5115770;28;20806;-69
2022/03/13 01:39:39;;;;;;;16.47;10.83;;;4.10;28.90;;;;;;5115663;28;20502;-69
2022/03/13 01:42:07;;;;;;;18.10;11.90;;;4.10;28.70;;;;;;5115465;28;20454;-69
2022/03/13 01:44:35;;;;;;;20.67;12.23;;;4.10;28.70;;;;;;5115239;28;20452;-69
2022/03/13 01:47:02;;;;;;;20.07;12.47;;;4.10;28.70;;;;;;5115132;28;20464;-69
2022/03/13 01:49:29;;;;;;;16.97;11.53;;;4.00;28.90;;;;;;5114994;28;20821;-70
2022/03/13 01:51:56;;;;;;;17.57;12.33;;;4.00;28.90;;;;;;5114375;28;20484;-70
2022/03/13 01:54:24;;;;;;;17.37;11.43;;;3.90;29.00;;;;;;5115071;28;20460;-70
2022/03/13 01:56:50;;;;;;;25.80;12.57;;;3.90;28.90;;;;;;5115025;28;20457;-70
2022/03/13 01:59:18;;;;;;;19.73;12.80;;;3.90;29.10;;;;;;5114705;28;20437;-70
2022/03/13 02:01:46;;;;;;;19.93;12.67;;;3.90;29.10;;;;;;5114791;28;20461;-70
2022/03/13 02:04:13;;;;;;;16.73;11.23;;;3.90;29.00;;;;;;5115001;28;20483;-70
2022/03/13 02:06:40;;;;;;;17.20;11.53;;;3.90;29.60;;;;;;5114866;28;20456;-69
2022/03/13 02:09:07;;;;;;;17.60;11.60;;;3.90;29.10;;;;;;5114419;28;20899;-70
2022/03/13 02:11:41;;;;;;;21.87;12.60;;;3.90;29.00;;;;;;5114831;28;20526;-70
2022/03/13 02:14:11;;;;;;;18.40;11.17;;;3.90;28.80;;;;;;5114489;28;20869;-70
2022/03/13 02:16:39;;;;;;;17.37;11.00;;;3.90;28.80;;;;;;5115076;28;20482;-70
2022/03/13 02:19:07;;;;;;;17.30;11.30;;;3.90;28.80;;;;;;5114908;28;20457;-70
2022/03/13 02:21:42;;;;;;;16.97;11.80;;;3.90;28.80;;;;;;5114470;28;20452;-69
2022/03/13 02:24:13;;;;;;;20.00;12.03;;;3.90;28.70;;;;;;5114789;28;20764;-69
2022/03/13 02:26:43;;;;;;;17.90;12.50;;;3.80;28.80;;;;;;5115113;28;20532;-69
2022/03/13 02:29:14;;;;;;;16.20;12.30;;;3.80;28.90;;;;;;5115357;28;20536;-69
2022/03/13 02:31:41;;;;;;;23.80;12.07;;;3.80;28.80;;;;;;5114662;28;20464;-71
2022/03/13 02:34:11;;;;;;;13.30;10.90;;;3.80;28.80;;;;;;5116062;28;20819;-70
2022/03/13 02:36:55;;;;;;;20.10;11.27;;;3.80;28.80;;;;;;5117526;28;20444;-70
2022/03/13 02:39:23;;;;;;;17.13;10.53;;;3.70;28.80;;;;;;5116946;28;20441;-69
2022/03/13 02:41:50;;;;;;;16.83;11.00;;;3.80;28.80;;;;;;5114838;28;20492;-69
2022/03/13 02:44:18;;;;;;;17.67;11.57;;;3.70;28.70;;;;;;5114372;28;20460;-70
2022/03/13 02:46:58;;;;;;;18.60;10.90;;;3.70;28.70;;;;;;5114559;28;20861;-68
2022/03/13 02:49:26;;;;;;;15.50;10.93;;;3.70;28.80;;;;;;5114600;28;20455;-70
2022/03/13 02:51:55;;;;;;;17.03;11.00;;;3.70;28.80;;;;;;5116145;28;20483;-69
2022/03/13 02:54:23;;;;;;;15.87;11.03;;;3.70;28.80;;;;;;5116442;28;20949;-70
2022/03/13 02:56:51;;;;;;;17.37;11.93;;;3.70;28.80;;;;;;5114556;28;20467;-70
2022/03/13 02:59:18;;;;;;;18.53;11.07;;;3.70;28.80;;;;;;5114719;28;20509;-70
2022/03/13 03:01:45;;;;;;;20.50;12.83;;;3.70;28.80;;;;;;5114190;28;20448;-69
2022/03/13 03:04:12;;;;;;;19.53;12.43;;;3.70;28.80;;;;;;5114245;28;20467;-70
2022/03/13 03:06:47;;;;;;;21.47;12.37;;;3.60;29.00;;;;;;5114397;28;20541;-69
2022/03/13 03:09:18;;;;;;;16.20;10.93;;;3.60;29.00;;;;;;5114607;28;20436;-69
2022/03/13 03:11:47;;;;;;;18.10;11.70;;;3.60;28.90;;;;;;5114311;28;20671;-69
2022/03/13 03:14:15;;;;;;;17.10;11.30;;;3.60;28.90;;;;;;5114376;28;20547;-70
2022/03/13 03:16:42;;;;;;;17.13;11.83;;;3.60;28.90;;;;;;5114390;28;20478;-69
2022/03/13 03:19:09;;;;;;;16.87;11.20;;;3.60;29.00;;;;;;5114398;28;20457;-70
2022/03/13 03:21:38;;;;;;;18.67;12.00;;;3.50;28.80;;;;;;5113914;28;20457;-69
2022/03/13 03:24:12;;;;;;;15.27;11.33;;;3.50;29.10;;;;;;5114144;28;20471;-68
2022/03/13 03:26:39;;;;;;;17.80;11.63;;;3.40;29.10;;;;;;5113677;28;20519;-70
2022/03/13 03:29:07;;;;;;;16.30;11.37;;;3.40;29.10;;;;;;5114173;28;20464;-70
2022/03/13 03:31:34;;;;;;;19.57;12.30;;;3.40;29.20;;;;;;5114073;28;20601;-70
2022/03/13 03:34:00;;;;;;;24.60;12.50;;;3.40;29.30;;;;;;5115289;28;20934;-70
2022/03/13 03:36:27;;;;;;;17.53;11.87;;;3.30;29.30;;;;;;5117883;28;20755;-69
2022/03/13 03:38:54;;;;;;;20.03;12.00;;;3.30;29.50;;;;;;5117691;28;20452;-69
2022/03/13 03:41:26;;;;;;;17.93;12.33;;;3.30;29.50;;;;;;5117561;28;20930;-69
2022/03/13 03:43:52;;;;;;;18.80;11.63;;;3.30;29.60;;;;;;5117598;28;20479;-69
2022/03/13 03:46:23;;;;;;;18.00;12.23;;;3.30;29.50;;;;;;5117854;28;20452;-69
2022/03/13 03:48:50;;;;;;;20.63;11.60;;;3.30;29.50;;;;;;5117631;28;20494;-69
2022/03/13 03:51:17;;;;;;;20.97;11.87;;;3.30;29.50;;;;;;5117181;28;20484;-69
2022/03/13 03:53:44;;;;;;;16.33;11.07;;;3.30;29.30;;;;;;5117562;28;20456;-69
2022/03/13 03:56:11;;;;;;;22.33;12.20;;;3.30;29.30;;;;;;5117149;28;20608;-69
2022/03/13 03:58:37;;;;;;;19.40;11.83;;;3.30;29.20;;;;;;5117053;28;20461;-69
2022/03/13 04:01:04;;;;;;;18.17;11.93;;;3.30;29.20;;;;;;5117266;28;20783;-69
2022/03/13 04:03:32;;;;;;;17.97;10.83;;;3.20;29.20;;;;;;5117138;28;20460;-69
2022/03/13 04:05:59;;;;;;;20.03;11.77;;;3.20;29.30;;;;;;5117194;28;20479;-69
2022/03/13 04:08:25;;;;;;;14.97;11.50;;;3.20;29.30;;;;;;5117727;28;20516;-68
2022/03/13 04:10:52;;;;;;;16.27;10.70;;;3.10;29.40;;;;;;5116920;28;20791;-69
2022/03/13 04:13:19;;;;;;;16.40;10.70;;;3.10;29.50;;;;;;5116928;28;20779;-70
2022/03/13 04:15:46;;;;;;;20.73;11.33;;;3.10;29.50;;;;;;5116949;28;20456;-69
2022/03/13 04:18:15;;;;;;;24.60;11.60;;;3.10;29.60;;;;;;5116980;28;20533;-70
2022/03/13 04:20:44;;;;;;;21.30;11.83;;;3.10;29.70;;;;;;5116633;28;20531;-69
2022/03/13 04:23:10;;;;;;;18.87;11.50;;;3.10;29.70;;;;;;5116913;28;20449;-69
2022/03/13 04:25:38;;;;;;;19.13;12.27;;;3.00;29.80;;;;;;5116667;28;20452;-70
2022/03/13 04:28:05;;;;;;;16.40;11.57;;;3.00;29.70;;;;;;5116909;28;20844;-69
2022/03/13 04:30:32;;;;;;;18.53;10.93;;;3.00;29.80;;;;;;5116517;28;21050;-70
2022/03/13 04:33:00;;;;;;;20.10;11.20;;;3.00;29.80;;;;;;5116629;28;20464;-70
2022/03/13 04:35:27;;;;;;;14.00;10.87;;;3.10;29.70;;;;;;5116792;28;20460;-70
2022/03/13 04:37:55;;;;;;;17.90;12.27;;;3.00;29.80;;;;;;5116586;28;20797;-69
2022/03/13 04:40:22;;;;;;;16.73;10.47;;;3.00;29.90;;;;;;5116396;28;20533;-70
2022/03/13 04:42:48;;;;;;;16.83;12.03;;;3.00;29.90;;;;;;5116286;28;20968;-69
2022/03/13 04:45:16;;;;;;;16.90;10.73;;;3.00;29.80;;;;;;5115669;28;20846;-70
2022/03/13 04:47:43;;;;;;;16.60;11.00;;;3.00;29.80;;;;;;5116864;28;20457;-69
2022/03/13 04:50:10;;;;;;;18.23;11.10;;;2.90;29.80;;;;;;5116335;28;20490;-69
2022/03/13 04:52:37;;;;;;;15.43;11.03;;;2.90;29.90;;;;;;5116156;28;20484;-70
2022/03/13 04:55:06;;;;;;;16.87;10.63;;;2.90;30.00;;;;;;5116418;28;20574;-70
2022/03/13 04:57:33;;;;;;;19.30;10.37;;;2.90;30.00;;;;;;5116911;28;20467;-69
2022/03/13 04:59:59;;;;;;;16.97;11.57;;;2.90;30.00;;;;;;5115990;28;20452;-69
2022/03/13 05:02:28;;;;;;;18.83;12.30;;;2.90;30.00;;;;;;5116198;28;20936;-70
2022/03/13 05:04:55;;;;;;;19.67;12.17;;;2.90;30.00;;;;;;5116358;28;20538;-69
2022/03/13 05:07:22;;;;;;;21.63;11.67;;;2.90;30.00;;;;;;5116050;28;20518;-70
2022/03/13 05:09:49;;;;;;;15.00;10.37;;;2.90;30.00;;;;;;5116247;28;20452;-69
2022/03/13 05:12:17;;;;;;;16.30;10.97;;;2.90;30.00;;;;;;5116429;28;20980;-69
2022/03/13 05:14:44;;;;;;;16.73;11.63;;;2.90;30.00;;;;;;5115977;28;20780;-70
2022/03/13 05:17:11;;;;;;;18.73;10.60;;;2.80;30.10;;;;;;5116033;28;20464;-69
2022/03/13 05:19:38;;;;;;;16.20;11.67;;;2.90;30.00;;;;;;5115968;28;20464;-70
2022/03/13 05:22:05;;;;;;;18.37;10.70;;;2.80;30.00;;;;;;5116010;28;20452;-70
2022/03/13 05:24:31;;;;;;;14.63;10.50;;;2.80;30.00;;;;;;5115532;28;20456;-69
2022/03/13 05:26:58;;;;;;;18.90;11.33;;;2.80;30.10;;;;;;5115795;28;20529;-69
2022/03/13 05:29:26;;;;;;;16.20;10.87;;;2.70;30.10;;;;;;5116671;28;20460;-70
2022/03/13 05:31:53;;;;;;;16.17;10.43;;;2.80;30.00;;;;;;5115657;28;20480;-69
2022/03/13 05:34:19;;;;;;;16.07;10.63;;;2.80;30.10;;;;;;5115985;28;20452;-68
2022/03/13 05:36:46;;;;;;;16.63;11.17;;;2.80;30.10;;;;;;5115446;28;20930;-69
2022/03/13 05:39:13;;;;;;;15.47;10.90;;;2.90;30.20;;;;;;5116318;28;20463;-69
2022/03/13 05:41:40;;;;;;;22.77;11.30;;;2.90;30.40;;;;;;5115571;28;20464;-69
2022/03/13 05:44:09;;;;;;;16.10;11.10;;;2.90;30.20;;;;;;5115525;28;20452;-69
2022/03/13 05:46:37;;;;;;;15.17;11.00;;;2.90;30.20;;;;;;5115261;28;20452;-69
2022/03/13 05:49:08;;;;;;;15.70;10.93;;;2.80;30.20;;;;;;5115048;28;20452;-69
2022/03/13 05:51:37;;;;;;;18.17;11.73;;;2.90;30.80;;;;;;5115198;28;20595;-69
2022/03/13 05:54:04;;;;;;;16.60;11.27;;;2.80;30.20;;;;;;5114996;28;20464;-68
2022/03/13 05:56:31;;;;;;;16.13;11.00;;;2.90;30.30;;;;;;5115469;28;20789;-68
2022/03/13 05:58:58;;;;;;;18.40;11.30;;;2.80;30.40;;;;;;5115207;28;20465;-70
2022/03/13 06:01:24;;;;;;;18.40;11.10;;;2.90;30.50;;;;;;5115189;28;20467;-70
2022/03/13 06:03:53;;;;;;;17.57;11.50;;;2.90;30.50;;;;;;5115034;28;20513;-68
2022/03/13 06:06:20;;;;;;;19.60;10.70;;;2.90;30.60;;;;;;5115319;28;20545;-70
2022/03/13 06:08:47;;;;;;;21.67;11.87;;;2.80;30.70;;;;;;5115174;28;20558;-70
2022/03/13 06:11:14;;;;;;;19.73;12.53;;;2.80;30.80;;;;;;5115023;28;20473;-69
2022/03/13 06:13:41;;;;;;;17.57;11.20;;;2.80;31.00;;;;;;5115131;28;20820;-69
2022/03/13 06:16:07;;;;;;;16.10;10.50;;;2.90;30.90;;;;;;5115374;28;20456;-69
2022/03/13 06:18:34;;;;;;;20.23;11.90;;;2.90;30.80;;;;;;5115959;28;20463;-69
2022/03/13 06:21:05;;;;;;;19.77;12.13;;;2.90;30.90;;;;;;5115773;28;20448;-69
2022/03/13 06:23:32;;;;;;;18.27;12.40;;;3.00;30.80;;;;;;5116681;28;20441;-69
2022/03/13 06:25:59;;;;;;;18.03;11.67;;;3.00;30.60;;;;;;5117517;28;20755;-69
2022/03/13 06:28:26;;;;;;;23.60;11.60;;;3.00;30.70;;;;;;5115721;28;20855;-69
2022/03/13 06:30:55;;;;;;;17.20;11.93;;;3.00;30.80;;;;;;5114586;28;20467;-69
2022/03/13 06:33:22;;;;;;;18.27;12.43;;;3.10;30.90;;;;;;5114902;28;20516;-69
2022/03/13 06:35:49;;;;;;;19.97;12.77;;;3.00;30.80;;;;;;5114971;28;20456;-69
2022/03/13 06:38:17;;;;;;;20.03;12.40;;;3.00;31.00;;;;;;5117192;28;20482;-70
2022/03/13 06:40:44;;;;;;;17.20;11.97;;;3.00;31.00;;;;;;5116308;28;20456;-69
2022/03/13 06:43:11;;;;;;;19.20;11.77;;;3.10;31.10;;;;;;5114311;28;20926;-69
2022/03/13 06:45:38;;;;;;;16.67;10.80;;;3.10;30.90;;;;;;5115675;28;20460;-69
2022/03/13 06:48:05;;;;;;;17.93;11.30;;;3.20;31.10;;;;;;5118974;28;20456;-69
2022/03/13 06:50:31;;;;;;;18.97;12.27;;;3.10;30.90;;;;;;5117332;28;20492;-69
2022/03/13 06:52:59;;;;;;;19.00;10.60;;;3.20;31.00;;;;;;5114896;28;20489;-69
2022/03/13 06:55:28;;;;;;;17.40;11.57;;;3.20;30.90;;;;;;5114856;28;20586;-69
2022/03/13 06:57:54;;;;;;;18.70;10.73;;;3.30;30.60;;;;;;5114254;28;20929;-69
2022/03/13 07:00:21;;;;;;;17.63;11.83;;;3.30;30.50;;;;;;5114262;28;20456;-70
2022/03/13 07:02:48;;;;;;;17.50;11.30;;;3.40;30.30;;;;;;5114675;28;20556;-70
2022/03/13 07:05:15;;;;;;;21.20;11.83;;;3.40;30.10;;;;;;5115006;28;20806;-70
2022/03/13 07:07:42;;;;;;;18.50;11.40;;;3.40;30.00;;;;;;5114710;28;20536;-69
2022/03/13 07:10:10;;;;;;;18.20;11.17;;;3.50;30.00;;;;;;5118412;28;20471;-68
2022/03/13 07:12:39;;;;;;;16.47;11.10;;;3.60;29.80;;;;;;5118960;28;20490;-69
2022/03/13 07:15:12;;;;;;;17.67;11.90;;;3.60;29.70;;;;;;5118577;28;20452;-70
2022/03/13 07:17:39;;;;;;;20.67;11.63;;;3.70;29.70;;;;;;5118655;28;20452;-69
2022/03/13 07:20:07;;;;;;;15.83;10.27;;;3.80;29.50;;;;;;5118420;28;20460;-70
2022/03/13 07:22:34;;;;;;;16.80;10.80;;;3.80;29.40;;;;;;5117867;28;20457;-69
2022/03/13 07:25:01;;;;;;;17.97;12.30;;;3.90;29.40;;;;;;5117582;28;20472;-69
2022/03/13 07:27:28;;;;;;;18.87;11.87;;;3.90;29.20;;;;;;5117917;28;20456;-69
2022/03/13 07:29:56;;;;;;;18.63;11.20;;;4.00;29.20;;;;;;5118275;28;20467;-70
2022/03/13 07:32:23;;;;;;;18.27;11.17;;;4.10;29.10;;;;;;5117775;28;20480;-70
2022/03/13 07:34:50;;;;;;;17.60;11.33;;;4.10;28.90;;;;;;5117672;28;20901;-69
2022/03/13 07:37:17;;;;;;;21.40;11.63;;;4.20;28.70;;;;;;5118058;28;20815;-69
2022/03/13 07:39:47;;;;;;;14.20;11.60;;;4.20;28.70;;;;;;5118534;28;20455;-70
2022/03/13 07:42:14;;;;;;;16.77;11.67;;;4.30;28.60;;;;;;5118171;28;20466;-70
2022/03/13 07:44:41;;;;;;;18.00;11.13;;;4.40;28.40;;;;;;5117934;28;20792;-69
2022/03/13 07:47:10;;;;;;;16.90;11.87;;;4.40;28.40;;;;;;5117777;28;20457;-69
2022/03/13 07:49:37;;;;;;;18.60;12.93;;;4.50;28.30;;;;;;5117706;28;20488;-70
2022/03/13 07:52:04;;;;;;;16.63;11.10;;;4.60;28.40;;;;;;5117313;28;20839;-70
2022/03/13 07:54:31;;;;;;;19.17;11.20;;;4.70;28.20;;;;;;5117935;28;20456;-71
2022/03/13 07:56:58;;;;;;;19.80;11.57;;;4.70;28.10;;;;;;5117414;28;20456;-70
2022/03/13 07:59:25;;;;;;;17.93;11.67;;;4.80;27.80;;;;;;5117493;28;20552;-70
2022/03/13 08:01:51;;;;;;;18.00;10.57;;;4.90;27.80;;;;;;5117498;28;20463;-70
2022/03/13 08:04:19;;;;;;;18.13;11.93;;;5.00;27.50;;;;;;5117524;28;20456;-70
2022/03/13 08:06:46;;;;;;;14.60;10.07;;;5.10;27.50;;;;;;5117446;28;20460;-69
2022/03/13 08:09:13;;;;;;;15.43;10.70;;;5.10;27.40;;;;;;5117464;28;20460;-69
2022/03/13 08:11:41;;;;;;;19.10;10.63;;;5.20;27.20;;;;;;5117437;28;20480;-69
2022/03/13 08:14:08;;;;;;;19.30;10.63;;;5.30;27.10;;;;;;5117090;28;20894;-69
2022/03/13 08:16:35;;;;;;;19.27;10.90;;;5.40;27.00;;;;;;5117340;28;20902;-70
2022/03/13 08:19:02;;;;;;;13.87;11.17;;;5.50;26.80;;;;;;5117166;28;20562;-69
2022/03/13 08:21:30;;;;;;;16.47;9.90;;;5.50;26.60;;;;;;5115836;28;20484;-70
2022/03/13 08:23:59;;;;;;;14.37;10.40;;;5.60;26.50;;;;;;5117084;28;20471;-69
2022/03/13 08:26:27;;;;;;;15.00;9.67;;;5.70;26.50;;;;;;5117550;28;20479;-70
2022/03/13 08:28:53;;;;;;;13.23;10.30;;;5.70;26.10;;;;;;5118389;28;20484;-70
2022/03/13 08:31:20;;;;;;;15.00;11.20;;;5.80;26.00;;;;;;5116816;28;20517;-70
2022/03/13 08:33:47;;;;;;;15.43;9.90;;;5.90;26.00;;;;;;5117007;28;20867;-69
2022/03/13 08:36:14;;;;;;;12.73;9.53;;;6.00;25.70;;;;;;5117118;28;20945;-70
2022/03/13 08:38:42;;;;;;;14.83;10.33;;;6.10;25.50;;;;;;5116827;28;20532;-70
2022/03/13 08:41:09;;;;;;;15.00;10.00;;;6.20;25.40;;;;;;5117120;28;20490;-70
2022/03/13 08:43:35;;;;;;;13.93;9.77;;;6.30;25.10;;;;;;5117276;28;20452;-70
2022/03/13 08:46:02;;;;;;;28.13;18.60;;;6.30;25.20;;;;;;5116555;28;20552;-70
2022/03/13 08:48:29;;;;;;;20.17;13.40;;;6.40;24.80;;;;;;5116636;28;20505;-70
2022/03/13 08:50:56;;;;;;;23.67;15.20;;;6.50;24.70;;;;;;5116084;28;20456;-70
2022/03/13 08:53:23;;;;;;;18.10;11.50;;;6.60;24.60;;;;;;5116430;28;20533;-70
2022/03/13 08:55:51;;;;;;;12.20;9.97;;;6.60;24.60;;;;;;5116185;28;20460;-71
2022/03/13 08:58:18;;;;;;;12.03;9.40;;;6.70;24.60;;;;;;5115774;28;20914;-70
2022/03/13 09:00:44;;;;;;;12.37;9.27;;;6.80;24.70;;;;;;5116082;28;20534;-70
2022/03/13 09:03:11;;;;;;;14.23;9.30;;;6.90;24.60;;;;;;5115828;28;20946;-70
2022/03/13 09:05:39;;;;;;;14.60;9.80;;;7.10;23.60;;;;;;5116052;28;20776;-70
2022/03/13 09:08:06;;;;;;;12.93;7.10;;;7.20;23.40;;;;;;5116740;28;20483;-69
2022/03/13 09:10:33;;;;;;;11.17;7.83;;;7.20;22.80;;;;;;5115898;28;20456;-69
2022/03/13 09:13:01;;;;;;;11.30;8.20;;;7.30;22.20;;;;;;5115929;28;20976;-69
2022/03/13 09:15:27;;;;;;;13.43;9.13;;;7.50;21.90;;;;;;5116272;28;20497;-69
2022/03/13 09:17:54;;;;;;;11.00;8.67;;;7.50;21.70;;;;;;5115484;28;20467;-70
2022/03/13 09:20:22;;;;;;;12.00;8.30;;;7.50;22.20;;;;;;5115043;28;20503;-69
2022/03/13 09:22:49;;;;;;;11.80;8.03;;;7.60;21.50;;;;;;5115560;28;20452;-69
2022/03/13 09:25:18;;;;;;;11.63;7.53;;;7.80;21.20;;;;;;5115663;28;20533;-69
2022/03/13 09:27:44;;;;;;;12.60;8.17;;;7.80;21.10;;;;;;5115467;28;20553;-70
2022/03/13 09:30:13;;;;;;;11.37;8.73;;;7.80;21.00;;;;;;5115691;28;20859;-70
2022/03/13 09:32:41;;;;;;;10.20;7.40;;;7.90;21.00;;;;;;5114917;28;20484;-70
2022/03/13 09:35:08;;;;;;;13.13;8.00;;;8.00;21.00;;;;;;5115246;28;20588;-70
2022/03/13 09:37:35;;;;;;;14.27;8.67;;;8.10;20.70;;;;;;5116354;28;20457;-70
2022/03/13 09:40:02;;;;;;;11.90;8.33;;;8.20;20.50;;;;;;5117897;28;20448;-70
2022/03/13 09:42:28;;;;;;;12.07;8.10;;;8.30;20.00;;;;;;5115215;28;20543;-70
2022/03/13 09:44:55;;;;;;;12.17;7.97;;;8.30;20.20;;;;;;5115001;28;20456;-69
2022/03/13 09:47:23;;;;;;;12.97;8.37;;;8.30;20.30;;;;;;5115302;28;20471;-69
2022/03/13 09:49:51;;;;;;;48.00;27.37;;;8.40;20.40;;;;;;5114593;28;20938;-70
2022/03/13 09:52:17;;;;;;;14.10;9.13;;;8.50;20.40;;;;;;5114589;28;20488;-70
2022/03/13 09:54:44;;;;;;;10.43;8.00;;;8.60;20.20;;;;;;5114783;28;20467;-69
2022/03/13 09:57:11;;;;;;;12.47;7.77;;;8.70;20.10;;;;;;5114768;28;20452;-69
2022/03/13 09:59:38;;;;;;;13.27;8.10;;;8.80;19.70;;;;;;5114491;28;20456;-70
2022/03/13 10:02:06;;;;;;;11.30;8.10;;;8.80;19.80;;;;;;5114795;28;20456;-70
2022/03/13 10:04:34;;;;;;;12.17;8.20;;;8.90;19.70;;;;;;5114750;28;20492;-70
2022/03/13 10:07:07;;;;;;;12.50;9.07;;;9.00;19.70;;;;;;5114337;28;20469;-70
2022/03/13 10:09:35;;;;;;;12.13;7.90;;;9.10;19.70;;;;;;5114773;28;20468;-70
2022/03/13 10:12:08;;;;;;;9.70;7.90;;;9.20;19.60;;;;;;5114667;28;20551;-70
2022/03/13 10:14:36;;;;;;;12.07;7.80;;;9.30;20.10;;;;;;5114798;28;20877;-71
2022/03/13 10:17:05;;;;;;;11.40;8.70;;;9.50;19.40;;;;;;5116243;28;20457;-70
2022/03/13 10:19:32;;;;;;;12.43;8.40;;;9.50;19.30;;;;;;5116168;28;20470;-70
2022/03/13 10:22:07;;;;;;;13.50;9.00;;;9.60;19.40;;;;;;5115888;28;20526;-70
2022/03/13 10:24:41;;;;;;;11.43;8.20;;;9.80;19.10;;;;;;5114848;28;20775;-71
2022/03/13 10:27:13;;;;;;;10.00;7.30;;;9.90;18.20;;;;;;5114771;28;20844;-71
2022/03/13 10:29:40;;;;;;;10.93;7.37;;;9.90;17.80;;;;;;5114730;28;20463;-71
2022/03/13 10:32:08;;;;;;;8.83;6.47;;;10.00;17.10;;;;;;5114539;28;20555;-71
2022/03/13 10:34:35;;;;;;;9.67;7.40;;;10.10;16.70;;;;;;5114077;28;20448;-71
2022/03/13 10:37:04;;;;;;;12.43;6.53;;;10.10;16.80;;;;;;5114268;28;20463;-71
2022/03/13 10:39:33;;;;;;;8.90;6.47;;;10.30;16.70;;;;;;5114558;28;20459;-71
2022/03/13 10:42:01;;;;;;;8.57;6.00;;;10.40;16.20;;;;;;5115876;28;20463;-72
2022/03/13 10:44:34;;;;;;;9.53;6.50;;;10.50;15.70;;;;;;5117889;28;20782;-71
2022/03/13 10:47:04;;;;;;;8.20;5.70;;;10.50;15.40;;;;;;5123356;28;20439;-71
2022/03/13 10:49:36;;;;;;;9.83;6.90;;;10.50;15.50;;;;;;5123726;28;20496;-71
2022/03/13 10:52:25;;;;;;;8.20;6.10;;;10.60;15.80;;;;;;5119749;28;20519;-72
2022/03/13 10:54:56;;;;;;;10.43;7.20;;;10.60;16.20;;;;;;5117907;28;20440;-71
2022/03/13 10:57:24;;;;;;;8.97;6.50;;;10.80;16.40;;;;;;5118294;28;20447;-71
2022/03/13 11:00:12;;;;;;;11.20;7.57;;;10.90;16.60;;;;;;5118433;28;20460;-71
2022/03/13 11:02:42;;;;;;;10.43;6.97;;;11.10;16.60;;;;;;5118699;28;20448;-71
2022/03/13 11:05:09;;;;;;;8.67;6.20;;;11.20;16.40;;;;;;5119130;28;20471;-73
2022/03/13 11:07:37;;;;;;;12.70;7.07;;;11.30;16.40;;;;;;5118197;28;20902;-70
2022/03/13 11:10:06;;;;;;;16.33;6.50;;;11.40;16.40;;;;;;5117854;28;20456;-71
2022/03/13 11:12:33;;;;;;;8.50;6.43;;;11.40;16.20;;;;;;5118153;28;20480;-71
2022/03/13 11:15:02;;;;;;;12.93;6.93;;;11.50;16.30;;;;;;5118629;28;20456;-71
2022/03/13 11:17:31;;;;;;;8.23;7.07;;;11.60;16.40;;;;;;5118662;28;20914;-72
2022/03/13 11:20:00;;;;;;;8.50;6.40;;;11.70;16.30;;;;;;5119671;28;20502;-71
2022/03/13 11:22:28;;;;;;;10.00;6.63;;;11.80;16.00;;;;;;5119016;28;20902;-72
2022/03/13 11:24:58;;;;;;;7.60;6.27;;;11.80;15.70;;;;;;5121278;28;20453;-71
2022/03/13 11:27:26;;;;;;;11.47;7.23;;;11.80;15.50;;;;;;5120764;28;20459;-71
2022/03/13 11:29:55;;;;;;;7.40;6.20;;;11.90;15.60;;;;;;5119483;28;20456;-71
2022/03/13 11:32:42;;;;;;;8.90;6.50;;;12.00;15.50;;;;;;5118198;28;20475;-72
2022/03/13 11:35:27;;;;;;;10.60;7.53;;;12.10;16.20;;;;;;5117672;28;20886;-71
2022/03/13 11:37:56;;;;;;;10.00;7.33;;;12.20;15.90;;;;;;5117493;28;20440;-71
2022/03/13 11:40:33;;;;;;;9.20;7.30;;;12.40;16.00;;;;;;5117752;28;20452;-71
2022/03/13 11:43:09;;;;;;;9.07;7.23;;;12.60;16.10;;;;;;5118522;28;20726;-71
2022/03/13 11:45:39;;;;;;;15.00;8.83;;;12.80;16.30;;;;;;5117793;28;20902;-71
2022/03/13 11:48:45;;;;;;;9.30;8.10;;;13.00;16.50;;;;;;5117951;28;20523;-71
2022/03/13 11:51:29;;;;;;;10.97;8.40;;;13.10;16.60;;;;;;5116501;28;20483;-71
2022/03/13 11:53:58;;;;;;;10.97;8.50;;;13.30;16.90;;;;;;5117132;28;20479;-71
2022/03/13 11:56:29;;;;;;;12.47;8.77;;;13.40;16.90;;;;;;5117445;28;20456;-71
2022/03/13 11:58:58;;;;;;;11.43;9.00;;;13.50;17.50;;;;;;5117400;28;20485;-71
2022/03/13 12:01:36;;;;;;;12.10;9.40;;;13.80;17.90;;;;;;5117202;28;20827;-70
2022/03/13 12:04:26;;;;;;;11.00;8.87;;;14.20;17.70;;;;;;5117313;28;20452;-71
2022/03/13 12:07:00;;;;;;;14.50;10.80;;;15.10;17.40;;;;;;5117367;28;20535;-70
2022/03/13 12:09:29;;;;;;;12.20;9.40;;;16.20;17.20;;;;;;5117427;28;20455;-71
2022/03/13 12:12:08;;;;;;;13.30;9.70;;;17.50;16.70;;;;;;5117073;28;20460;-71
2022/03/13 12:15:03;;;;;;;13.90;10.30;;;18.70;16.00;;;;;;5117150;28;20475;-71
2022/03/13 12:17:32;;;;;;;11.97;8.97;;;20.00;16.20;;;;;;5117044;28;20449;-71
2022/03/13 12:20:02;;;;;;;11.27;8.30;;;20.90;14.70;;;;;;5117253;28;20472;-72
2022/03/13 12:22:30;;;;;;;14.60;9.60;;;21.50;14.60;;;;;;5116480;28;20877;-71
2022/03/13 12:24:59;;;;;;;11.10;9.23;;;22.00;13.60;;;;;;5116804;28;20452;-71
2022/03/13 12:27:27;;;;;;;12.80;9.27;;;22.40;13.50;;;;;;5117087;28;20464;-70
2022/03/13 12:29:58;;;;;;;9.80;8.40;;;22.90;13.50;;;;;;5116850;28;20559;-71
2022/03/13 12:32:35;;;;;;;10.13;8.80;;;23.30;12.90;;;;;;5117233;28;20464;-72
2022/03/13 12:35:04;;;;;;;11.37;8.97;;;23.50;13.40;;;;;;5116286;28;20448;-71
2022/03/13 12:37:31;;;;;;;12.90;8.70;;;23.60;12.60;;;;;;5116627;28;20471;-72
2022/03/13 12:40:00;;;;;;;14.73;8.53;;;24.20;12.70;;;;;;5116425;28;20453;-71
2022/03/13 12:42:33;;;;;;;9.90;8.23;;;24.60;12.70;;;;;;5116575;28;20983;-71
2022/03/13 12:45:04;;;;;;;11.10;9.13;;;25.00;12.60;;;;;;5116992;28;20852;-71